Time;durP1;ratioP1;P1;durP2;ratioP2;P2;SDS_P1;SDS_P2;PMS_P1;PMS_P2;Temp;Humidity;BMP_temperature;BMP_pressure;BME280_temperature;BME280_humidity;BME280_pressure;Samples;Min_cycle;Max_cycle;Signal;HPM_P1;HPM_P2
2023/05/20 00:01:45;;;;;;;6.00;1.70;;;;;;;9.13;79.54;101285.98;105843;1254;60483;-76
2023/05/20 00:04:33;;;;;;;6.40;1.50;;;;;;;9.09;80.00;101280.01;105875;1257;71292;-75
2023/05/20 00:07:26;;;;;;;5.80;1.50;;;;;;;9.06;79.88;101273.41;105981;1254;68070;-75
2023/05/20 00:10:14;;;;;;;6.70;1.50;;;;;;;9.05;79.94;101267.84;106223;1254;72829;-75
2023/05/20 00:13:03;;;;;;;6.40;1.60;;;;;;;9.03;80.46;101272.14;105740;1254;59723;-76
2023/05/20 00:15:52;;;;;;;5.40;1.40;;;;;;;9.03;80.70;101270.59;106088;1257;60446;-77
2023/05/20 00:18:40;;;;;;;6.30;1.50;;;;;;;9.02;80.59;101264.63;105806;1254;72767;-75
2023/05/20 00:21:28;;;;;;;6.00;1.40;;;;;;;9.00;81.03;101258.49;105844;1254;66704;-78
2023/05/20 00:24:16;;;;;;;4.90;1.40;;;;;;;8.97;81.37;101258.81;106440;1254;72820;-78
2023/05/20 00:27:05;;;;;;;5.90;1.90;;;;;;;8.91;82.28;101255.27;106205;1253;59523;-76
2023/05/20 00:29:54;;;;;;;8.10;1.80;;;;;;;8.92;82.70;101260.03;106366;1257;61086;-78
2023/05/20 00:32:42;;;;;;;6.40;1.30;;;;;;;8.88;82.70;101257.70;106827;1257;74026;-78
2023/05/20 00:35:30;;;;;;;6.70;1.50;;;;;;;8.87;82.64;101262.17;106997;1263;66883;-77
2023/05/20 00:38:19;;;;;;;7.30;1.70;;;;;;;8.88;82.72;101263.40;106653;1257;71307;-76
2023/05/20 00:41:08;;;;;;;6.30;1.70;;;;;;;8.88;82.56;101263.75;105235;1263;1002945;-76
2023/05/20 00:43:57;;;;;;;8.20;1.60;;;;;;;8.86;82.57;101267.52;105868;1258;60423;-76
2023/05/20 00:46:46;;;;;;;5.40;1.40;;;;;;;8.86;82.35;101268.42;105599;1257;72878;-77
2023/05/20 00:49:36;;;;;;;6.80;1.60;;;;;;;8.85;82.60;101272.02;105494;1265;67619;-75
2023/05/20 00:52:28;;;;;;;6.10;1.70;;;;;;;8.83;82.40;101271.41;105544;1264;72590;-78
2023/05/20 00:55:16;;;;;;;8.10;1.70;;;;;;;8.82;82.43;101268.43;105949;1264;59685;-78
2023/05/20 00:58:05;;;;;;;6.00;1.50;;;;;;;8.82;82.76;101268.09;105874;1257;60042;-78
2023/05/20 01:00:54;;;;;;;6.20;1.50;;;;;;;8.82;82.84;101267.94;106031;1260;74086;-78
2023/05/20 01:03:45;;;;;;;6.30;1.60;;;;;;;8.81;82.75;101267.77;106234;1257;67644;-78
2023/05/20 01:06:36;;;;;;;6.20;1.50;;;;;;;8.81;83.14;101267.77;105967;1254;72557;-78
2023/05/20 01:09:25;;;;;;;6.30;1.70;;;;;;;8.79;83.33;101266.48;106114;1257;59669;-78
2023/05/20 01:12:34;;;;;;;7.00;1.60;;;;;;;8.77;83.21;101268.18;105866;1254;60393;-77
2023/05/20 01:15:27;;;;;;;6.40;1.50;;;;;;;8.77;82.95;101267.84;105881;1254;71631;-79
2023/05/20 01:18:19;;;;;;;7.70;1.70;;;;;;;8.77;83.06;101263.61;105831;1254;66010;-73
2023/05/20 01:21:12;;;;;;;6.50;1.50;;;;;;;8.77;82.81;101263.23;105983;1254;71475;-74
2023/05/20 01:24:04;;;;;;;5.90;1.60;;;;;;;8.78;83.24;101259.25;105749;1260;59730;-75
2023/05/20 01:26:53;;;;;;;6.20;1.70;;;;;;;8.80;83.51;101264.84;105778;1254;59628;-72
2023/05/20 01:29:43;;;;;;;5.50;1.60;;;;;;;8.80;83.58;101262.55;105844;1255;71625;-72
2023/05/20 01:32:37;;;;;;;6.50;1.50;;;;;;;8.79;83.65;101263.33;105857;1264;67853;-74
2023/05/20 01:35:28;;;;;;;6.90;1.70;;;;;;;8.78;83.81;101262.81;105782;1260;73098;-74
2023/05/20 01:38:18;;;;;;;5.50;1.70;;;;;;;8.77;83.86;101263.97;105695;1255;59723;-73
2023/05/20 01:41:07;;;;;;;6.00;1.60;;;;;;;8.76;83.83;101258.35;106304;1254;59718;-75
2023/05/20 01:43:56;;;;;;;6.00;1.80;;;;;;;8.77;83.79;101253.67;106848;1254;70781;-76
2023/05/20 01:46:49;;;;;;;5.80;1.50;;;;;;;8.79;83.90;101250.41;106742;1259;67657;-76
2023/05/20 01:49:38;;;;;;;6.90;1.80;;;;;;;8.80;83.64;101246.95;107136;1255;71299;-79
2023/05/20 01:52:26;;;;;;;6.90;1.90;;;;;;;8.83;83.53;101247.69;105738;1265;59654;-79
2023/05/20 01:55:14;;;;;;;6.80;1.70;;;;;;;8.87;83.48;101248.56;105925;1261;59647;-78
2023/05/20 01:58:04;;;;;;;7.10;1.70;;;;;;;8.88;83.57;101246.77;105884;1264;72908;-76
2023/05/20 02:00:52;;;;;;;6.10;1.60;;;;;;;8.89;83.25;101247.77;105939;1254;68743;-79
2023/05/20 02:03:40;;;;;;;5.30;1.50;;;;;;;8.87;83.32;101243.94;105884;1257;73447;-78
2023/05/20 02:06:28;;;;;;;6.90;1.50;;;;;;;8.86;83.32;101239.91;105863;1254;59698;-77
2023/05/20 02:09:18;;;;;;;5.60;1.60;;;;;;;8.85;83.49;101239.27;106083;1254;60500;-79
2023/05/20 02:12:07;;;;;;;6.80;1.60;;;;;;;8.84;83.30;101237.91;106058;1254;72287;-79
2023/05/20 02:14:56;;;;;;;5.80;1.80;;;;;;;8.84;83.43;101240.23;106156;1259;67990;-81
2023/05/20 02:17:45;;;;;;;6.30;1.70;;;;;;;8.83;83.41;101240.43;105959;1255;73473;-80
2023/05/20 02:20:35;;;;;;;6.30;1.50;;;;;;;8.76;83.74;101224.67;105929;1260;59618;-81
2023/05/20 02:23:24;;;;;;;6.40;1.50;;;;;;;8.85;83.64;101238.73;105966;1254;60868;-78
2023/05/20 02:26:12;;;;;;;7.70;2.50;;;;;;;8.84;83.29;101237.73;106051;1255;73181;-80
2023/05/20 02:29:01;;;;;;;8.90;1.70;;;;;;;8.83;83.08;101238.34;105970;1262;66266;-80
2023/05/20 02:31:49;;;;;;;6.60;1.70;;;;;;;8.82;83.25;101240.12;106372;1254;72877;-80
2023/05/20 02:34:38;;;;;;;6.50;1.50;;;;;;;8.84;83.29;101240.05;106406;1260;59632;-80
2023/05/20 02:37:27;;;;;;;5.60;1.50;;;;;;;8.84;82.84;101233.65;105845;1263;59689;-78
2023/05/20 02:40:16;;;;;;;6.40;1.90;;;;;;;8.89;83.02;101235.75;105695;1254;73302;-77
2023/05/20 02:43:05;;;;;;;6.70;1.50;;;;;;;8.91;82.98;101235.08;105751;1261;67925;-77
2023/05/20 02:45:54;;;;;;;6.00;1.70;;;;;;;8.91;82.64;101238.09;105559;1254;73769;-76
2023/05/20 02:48:42;;;;;;;6.30;1.80;;;;;;;8.92;82.68;101236.08;105711;1254;59717;-76
2023/05/20 02:51:32;;;;;;;5.60;1.60;;;;;;;8.92;82.60;101235.20;105579;1260;61142;-74
2023/05/20 02:54:20;;;;;;;6.00;1.50;;;;;;;8.91;82.44;101234.39;105567;1254;72985;-73
2023/05/20 02:57:08;;;;;;;7.60;1.90;;;;;;;8.91;82.45;101231.04;105758;1258;67751;-73
2023/05/20 02:59:58;;;;;;;6.30;1.60;;;;;;;8.91;82.29;101232.96;105694;1254;73681;-76
2023/05/20 03:02:46;;;;;;;6.40;1.60;;;;;;;8.90;82.37;101234.40;105682;1254;59679;-73
2023/05/20 03:05:37;;;;;;;4.90;1.40;;;;;;;8.86;82.51;101225.11;105526;1260;60302;-73
2023/05/20 03:08:26;;;;;;;5.70;1.70;;;;;;;8.89;82.37;101232.22;105797;1259;73367;-73
2023/05/20 03:11:14;;;;;;;5.10;1.60;;;;;;;8.88;82.66;101234.38;105922;1254;68190;-73
2023/05/20 03:14:02;;;;;;;6.20;1.70;;;;;;;8.88;82.73;101232.59;105690;1261;72822;-72
2023/05/20 03:16:54;;;;;;;6.90;1.60;;;;;;;8.87;82.90;101226.08;105412;1254;59641;-74
2023/05/20 03:19:42;;;;;;;5.80;1.80;;;;;;;8.87;82.78;101225.57;105607;1259;59714;-72
2023/05/20 03:22:30;;;;;;;6.20;1.70;;;;;;;8.88;83.12;101229.75;105713;1255;72803;-75
2023/05/20 03:25:18;;;;;;;6.80;1.70;;;;;;;8.90;83.15;101230.69;105694;1254;67739;-74
2023/05/20 03:28:07;;;;;;;8.30;1.60;;;;;;;8.92;82.79;101229.53;106022;1254;71430;-75
2023/05/20 03:30:56;;;;;;;6.30;1.60;;;;;;;8.92;82.93;101229.35;107271;1254;60089;-72
2023/05/20 03:33:45;;;;;;;7.70;1.80;;;;;;;8.98;82.87;101233.31;107509;1256;59963;-73
2023/05/20 03:36:34;;;;;;;6.70;1.80;;;;;;;9.01;82.93;101239.15;106829;1253;72796;-73
2023/05/20 03:39:22;;;;;;;5.90;1.70;;;;;;;9.05;83.14;101239.31;106399;1253;67301;-74
2023/05/20 03:42:10;;;;;;;6.00;1.90;;;;;;;9.07;82.84;101240.83;106021;1254;72753;-73
2023/05/20 03:45:00;;;;;;;6.10;2.10;;;;;;;9.08;82.81;101243.36;105921;1262;60784;-73
2023/05/20 03:47:49;;;;;;;7.50;2.00;;;;;;;9.10;82.63;101243.33;105775;1254;60418;-74
2023/05/20 03:50:38;;;;;;;9.00;1.90;;;;;;;9.14;82.47;101243.45;105849;1257;72989;-73
2023/05/20 03:53:26;;;;;;;5.80;1.90;;;;;;;9.19;82.48;101239.45;105752;1264;66724;-75
2023/05/20 03:56:15;;;;;;;5.90;1.70;;;;;;;9.24;82.13;101238.86;105723;1262;72812;-75
2023/05/20 03:59:03;;;;;;;7.10;1.80;;;;;;;9.29;82.18;101240.54;105970;1254;60235;-76
2023/05/20 04:01:53;;;;;;;7.30;1.90;;;;;;;9.33;82.12;101237.27;105853;1254;60393;-77
2023/05/20 04:04:42;;;;;;;7.40;1.70;;;;;;;9.36;81.79;101236.58;106079;1254;73085;-75
2023/05/20 04:07:30;;;;;;;7.10;1.80;;;;;;;9.41;81.87;101237.26;105876;1253;68727;-77
2023/05/20 04:10:20;;;;;;;7.40;1.80;;;;;;;9.45;81.88;101234.88;105936;1253;72722;-76
2023/05/20 04:13:10;;;;;;;7.40;2.00;;;;;;;9.51;81.63;101237.55;105989;1259;61130;-77
2023/05/20 04:16:00;;;;;;;7.30;2.20;;;;;;;9.56;81.16;101236.40;105985;1254;59680;-75
2023/05/20 04:18:49;;;;;;;6.70;1.60;;;;;;;9.62;81.28;101236.98;105862;1257;72326;-76
2023/05/20 04:21:38;;;;;;;8.00;2.00;;;;;;;9.68;81.07;101239.48;105914;1257;67859;-75
2023/05/20 04:24:27;;;;;;;7.60;2.10;;;;;;;9.74;80.90;101235.60;105947;1257;72671;-77
2023/05/20 04:27:15;;;;;;;6.60;1.60;;;;;;;9.81;80.83;101236.10;106042;1253;59611;-75
2023/05/20 04:30:05;;;;;;;6.30;1.80;;;;;;;9.88;80.48;101229.69;105881;1258;59538;-75
2023/05/20 04:32:55;;;;;;;7.60;1.70;;;;;;;9.95;80.22;101227.68;106024;1253;71453;-74
2023/05/20 04:35:47;;;;;;;7.00;1.70;;;;;;;10.02;79.72;101218.82;106317;1257;68103;-76
2023/05/20 04:38:36;;;;;;;6.90;1.90;;;;;;;10.14;79.35;101220.09;106076;1260;73313;-75
2023/05/20 04:41:26;;;;;;;7.50;1.80;;;;;;;10.20;78.78;101222.20;106005;1256;59710;-73
2023/05/20 04:44:14;;;;;;;5.80;1.90;;;;;;;10.27;79.06;101227.30;105886;1264;59638;-74
2023/05/20 04:47:03;;;;;;;7.10;1.90;;;;;;;10.33;78.96;101226.62;106162;1254;72800;-75
2023/05/20 04:49:51;;;;;;;6.40;1.70;;;;;;;10.40;78.71;101228.20;105810;1254;67997;-80
2023/05/20 04:52:44;;;;;;;6.10;1.80;;;;;;;10.44;78.56;101235.75;106137;1259;1003335;-78
2023/05/20 04:55:36;;;;;;;6.80;2.00;;;;;;;10.50;78.19;101234.48;106573;1259;59625;-79
2023/05/20 04:58:25;;;;;;;7.80;1.80;;;;;;;10.61;77.99;101234.04;106057;1257;60130;-76
2023/05/20 05:01:13;;;;;;;6.60;1.80;;;;;;;10.73;77.23;101235.10;106029;1256;72935;-80
2023/05/20 05:04:06;;;;;;;7.50;2.00;;;;;;;10.90;76.94;101239.06;106441;1256;67871;-83
2023/05/20 05:06:56;;;;;;;7.30;2.20;;;;;;;11.19;76.43;101237.45;106267;1257;71460;-81
2023/05/20 05:09:55;;;;;;;7.60;2.20;;;;;;;11.47;75.48;101239.47;106406;1259;59667;-78
2023/05/20 05:12:45;;;;;;;6.70;2.00;;;;;;;11.64;74.88;101242.67;106772;1258;59541;-77
2023/05/20 05:15:36;;;;;;;9.10;2.80;;;;;;;11.76;74.46;101237.64;106632;1260;72073;-82
2023/05/20 05:18:26;;;;;;;6.40;1.80;;;;;;;11.86;73.72;101238.45;106076;1259;67878;-78
2023/05/20 05:21:14;;;;;;;9.80;2.00;;;;;;;12.00;73.01;101233.11;106443;1259;71286;-80
2023/05/20 05:24:04;;;;;;;6.50;1.90;;;;;;;12.17;72.61;101228.66;106177;1258;59820;-78
2023/05/20 05:26:55;;;;;;;8.90;2.00;;;;;;;12.29;71.91;101229.80;107731;1259;59707;-77
2023/05/20 05:29:44;;;;;;;7.60;1.90;;;;;;;12.39;71.26;101232.02;106069;1259;72963;-77
2023/05/20 05:32:33;;;;;;;7.60;2.10;;;;;;;12.41;70.93;101230.40;106253;1259;67226;-80
2023/05/20 05:35:25;;;;;;;6.90;2.10;;;;;;;12.37;70.88;101224.09;106718;1257;71929;-79
2023/05/20 05:38:19;;;;;;;8.30;2.10;;;;;;;12.39;71.20;101230.59;106417;1259;59645;-80
2023/05/20 05:41:09;;;;;;;8.40;2.20;;;;;;;12.34;71.02;101233.17;106515;1257;60315;-80
2023/05/20 05:43:58;;;;;;;7.90;1.90;;;;;;;12.26;71.06;101232.83;106918;1259;71992;-82
2023/05/20 05:46:50;;;;;;;8.70;1.70;;;;;;;12.20;71.33;101231.14;105706;1256;234582;-79
2023/05/20 05:49:38;;;;;;;7.50;2.00;;;;;;;12.19;71.51;101232.60;105745;1256;72589;-79
2023/05/20 05:52:34;;;;;;;5.90;1.90;;;;;;;12.42;71.32;101229.48;105998;1256;59649;-82
2023/05/20 05:55:24;;;;;;;7.50;1.90;;;;;;;12.67;71.01;101228.86;106278;1256;59580;-77
2023/05/20 05:58:13;;;;;;;6.30;1.80;;;;;;;13.11;70.12;101228.56;106382;1256;73527;-77
2023/05/20 06:01:01;;;;;;;7.60;2.00;;;;;;;13.68;68.92;101221.48;105945;1260;67280;-77
2023/05/20 06:03:50;;;;;;;6.70;2.00;;;;;;;14.07;67.01;101223.09;106010;1263;70831;-81
2023/05/20 06:06:41;;;;;;;8.30;1.90;;;;;;;14.28;66.20;101225.28;106318;1256;59691;-80
2023/05/20 06:09:29;;;;;;;7.30;1.90;;;;;;;14.38;65.50;101227.08;106097;1256;59725;-76
2023/05/20 06:12:21;;;;;;;9.00;2.10;;;;;;;14.37;65.32;101226.39;106033;1256;71881;-78
2023/05/20 06:15:11;;;;;;;8.70;2.20;;;;;;;14.30;64.67;101224.30;105926;1256;67937;-78
2023/05/20 06:18:18;;;;;;;6.80;1.80;;;;;;;14.16;64.61;101224.60;106296;1258;73468;-79
2023/05/20 06:21:10;;;;;;;7.00;1.70;;;;;;;14.03;65.64;101225.75;106048;1262;59659;-79
2023/05/20 06:23:58;;;;;;;9.20;2.20;;;;;;;13.95;65.91;101223.30;106000;1256;59636;-78
2023/05/20 06:26:59;;;;;;;8.20;2.10;;;;;;;13.83;66.20;101223.81;106032;1256;73118;-78
2023/05/20 06:29:50;;;;;;;7.40;2.00;;;;;;;13.67;66.68;101224.59;106286;1258;66631;-78
2023/05/20 06:32:41;;;;;;;9.20;2.40;;;;;;;13.60;67.23;101234.34;107467;1256;71408;-77
2023/05/20 06:35:33;;;;;;;9.20;2.30;;;;;;;13.66;67.61;101232.52;107006;1259;59567;-74
2023/05/20 06:38:23;;;;;;;10.60;2.30;;;;;;;13.77;67.29;101229.73;107649;1254;59214;-79
2023/05/20 06:41:15;;;;;;;9.40;2.40;;;;;;;13.86;67.42;101227.88;107881;1254;71795;-76
2023/05/20 06:44:05;;;;;;;7.90;2.40;;;;;;;14.12;67.68;101229.56;106061;1254;65577;-73
2023/05/20 06:47:17;;;;;;;8.00;2.30;;;;;;;15.00;66.07;101232.02;106566;1254;72812;-77
2023/05/20 06:50:08;;;;;;;7.80;2.30;;;;;;;15.47;63.29;101232.41;106247;1254;59645;-80
2023/05/20 06:52:56;;;;;;;9.10;2.60;;;;;;;15.43;62.42;101232.56;106667;1254;60348;-80
2023/05/20 06:55:47;;;;;;;9.00;2.40;;;;;;;15.28;62.41;101231.25;106721;1253;73162;-77
2023/05/20 06:58:36;;;;;;;8.40;2.30;;;;;;;15.10;62.68;101229.45;105880;1254;66658;-77
2023/05/20 07:01:25;;;;;;;7.30;2.20;;;;;;;15.05;63.24;101231.98;106033;1254;72667;-77
2023/05/20 07:04:15;;;;;;;11.50;2.40;;;;;;;15.01;63.36;101232.10;106231;1253;59651;-79
2023/05/20 07:07:10;;;;;;;7.50;2.50;;;;;;;15.03;63.26;101228.23;105920;1253;60394;-78
2023/05/20 07:09:59;;;;;;;7.80;2.50;;;;;;;15.13;62.55;101228.17;106216;1254;71766;-79
2023/05/20 07:12:47;;;;;;;8.40;2.70;;;;;;;15.32;62.14;101224.70;106319;1257;65631;-77
2023/05/20 07:15:35;;;;;;;6.80;2.40;;;;;;;15.47;61.40;101224.08;105990;1253;73425;-76
2023/05/20 07:18:25;;;;;;;8.60;2.20;;;;;;;15.63;60.56;101222.93;106233;1254;59640;-76
2023/05/20 07:21:14;;;;;;;8.60;2.60;;;;;;;15.67;60.11;101217.08;106481;1253;61214;-78
2023/05/20 07:24:20;;;;;;;7.50;2.30;;;;;;;15.76;60.67;101215.43;106492;1257;71764;-78
2023/05/20 07:27:09;;;;;;;8.80;2.70;;;;;;;15.92;59.94;101217.18;106233;1253;67654;-77
2023/05/20 07:29:57;;;;;;;8.10;2.70;;;;;;;16.19;59.41;101216.11;106165;1254;72962;-76
2023/05/20 07:32:46;;;;;;;8.20;2.50;;;;;;;16.52;57.34;101208.29;106003;1254;59418;-78
2023/05/20 07:35:35;;;;;;;8.90;2.60;;;;;;;16.87;56.09;101206.23;106129;1254;59502;-74
2023/05/20 07:38:24;;;;;;;7.40;2.40;;;;;;;17.20;54.84;101202.12;105961;1258;73013;-75
2023/05/20 07:41:17;;;;;;;9.80;2.60;;;;;;;17.61;54.02;101200.34;105845;1254;66551;-73
2023/05/20 07:44:07;;;;;;;8.80;2.50;;;;;;;17.95;53.21;101195.84;105813;1254;72347;-78
2023/05/20 07:46:58;;;;;;;7.40;2.20;;;;;;;18.31;52.57;101194.86;105503;1263;59743;-78
2023/05/20 07:49:47;;;;;;;7.50;2.20;;;;;;;18.55;50.57;101193.42;105782;1262;59973;-76
2023/05/20 07:52:36;;;;;;;8.40;2.50;;;;;;;18.69;49.37;101197.09;105771;1258;71945;-76
2023/05/20 07:55:45;;;;;;;7.70;2.20;;;;;;;18.88;49.75;101198.05;105749;1257;68395;-78
2023/05/20 07:58:34;;;;;;;9.50;2.80;;;;;;;19.25;48.93;101195.61;105793;1263;73044;-77
2023/05/20 08:01:25;;;;;;;8.50;2.50;;;;;;;19.45;48.27;101194.02;105780;1265;59772;-78
2023/05/20 08:04:13;;;;;;;6.60;2.10;;;;;;;19.53;47.31;101191.42;106076;1256;59661;-77
2023/05/20 08:07:02;;;;;;;7.30;2.10;;;;;;;19.63;47.16;101183.25;105846;1257;73224;-78
2023/05/20 08:10:00;;;;;;;9.00;3.30;;;;;;;19.93;46.64;101174.43;105932;1260;66961;-78
2023/05/20 08:12:48;;;;;;;7.20;3.00;;;;;;;20.38;45.44;101172.20;106042;1257;70617;-72
2023/05/20 08:15:37;;;;;;;14.90;3.60;;;;;;;20.94;44.13;101171.00;105662;1266;59620;-75
2023/05/20 08:18:26;;;;;;;12.80;3.40;;;;;;;21.78;43.56;101171.58;105794;1259;59722;-79
2023/05/20 08:21:15;;;;;;;8.20;2.40;;;;;;;22.49;41.81;101175.41;105712;1259;73147;-74
2023/05/20 08:24:05;;;;;;;8.60;2.50;;;;;;;23.59;39.05;101178.95;105825;1259;67619;-76
2023/05/20 08:26:53;;;;;;;8.20;2.40;;;;;;;24.25;36.66;101166.44;106037;1254;72825;-74
2023/05/20 08:29:44;;;;;;;8.80;2.30;;;;;;;24.58;35.84;101163.81;105891;1254;59618;-76
2023/05/20 08:32:32;;;;;;;11.50;3.60;;;;;;;24.70;36.03;101165.65;105814;1259;60134;-75
2023/05/20 08:35:22;;;;;;;10.90;5.30;;;;;;;24.66;35.89;101169.52;105738;1254;74175;-76
2023/05/20 08:38:12;;;;;;;8.70;2.70;;;;;;;24.41;35.84;101170.17;105841;1254;67821;-76
2023/05/20 08:41:01;;;;;;;9.40;2.80;;;;;;;23.94;36.04;101154.10;105707;1264;72532;-72
2023/05/20 08:43:53;;;;;;;8.30;2.20;;;;;;;24.05;36.50;101157.02;105838;1254;59742;-75
2023/05/20 08:46:42;;;;;;;6.80;2.30;;;;;;;24.39;35.50;101155.67;105870;1259;59630;-75
2023/05/20 08:49:31;;;;;;;8.70;2.30;;;;;;;24.82;34.22;101151.27;105755;1256;73162;-75
2023/05/20 08:52:21;;;;;;;7.40;2.20;;;;;;;24.85;34.05;101146.54;106036;1259;68013;-74
2023/05/20 08:55:22;;;;;;;6.70;2.00;;;;;;;25.38;33.85;101150.02;105822;1254;73776;-76
2023/05/20 08:58:11;;;;;;;8.20;2.50;;;;;;;25.53;33.49;101155.30;106208;1257;59711;-74
2023/05/20 09:01:00;;;;;;;7.40;2.50;;;;;;;25.35;32.96;101160.06;106304;1254;59365;-75
2023/05/20 09:03:49;;;;;;;7.10;1.90;;;;;;;25.07;33.57;101155.20;105807;1255;71444;-75
2023/05/20 09:06:45;;;;;;;7.20;2.20;;;;;;;24.87;33.65;101157.95;105826;1259;68010;-72
2023/05/20 09:09:34;;;;;;;8.10;2.20;;;;;;;24.61;33.67;101153.81;105996;1254;73119;-72
2023/05/20 09:12:23;;;;;;;7.40;2.30;;;;;;;24.37;33.92;101158.98;105770;1261;59546;-76
2023/05/20 09:15:14;;;;;;;7.50;2.10;;;;;;;24.11;33.95;101156.66;105903;1254;60364;-75
2023/05/20 09:18:07;;;;;;;6.60;2.10;;;;;;;23.73;34.23;101160.50;105945;1254;72147;-75
2023/05/20 09:20:57;;;;;;;7.00;2.00;;;;;;;23.46;34.54;101162.15;106383;1259;68081;-75
2023/05/20 09:23:48;;;;;;;8.40;2.40;;;;;;;23.50;35.19;101159.00;106243;1254;72997;-75
2023/05/20 09:26:37;;;;;;;8.60;2.50;;;;;;;23.68;35.27;101152.71;106551;1259;59519;-76
2023/05/20 09:29:25;;;;;;;8.20;2.50;;;;;;;23.77;34.82;101152.65;106388;1257;60320;-73
2023/05/20 09:32:15;;;;;;;8.80;2.30;;;;;;;23.79;35.00;101153.30;107168;1254;71493;-76
2023/05/20 09:35:05;;;;;;;6.80;2.10;;;;;;;23.62;34.79;101156.15;107595;1254;66418;-73
2023/05/20 09:37:56;;;;;;;6.90;2.20;;;;;;;23.40;34.58;101159.56;107562;1254;72711;-77
2023/05/20 09:40:47;;;;;;;7.60;2.30;;;;;;;23.28;34.65;101153.37;107227;1254;59727;-73
2023/05/20 09:43:39;;;;;;;8.10;2.30;;;;;;;23.17;34.60;101152.77;105984;1254;59651;-73
2023/05/20 09:46:27;;;;;;;7.90;2.60;;;;;;;22.97;35.44;101154.14;106005;1254;73046;-68
2023/05/20 09:49:17;;;;;;;8.90;2.50;;;;;;;22.67;35.47;101156.75;106183;1256;67075;-71
2023/05/20 09:52:06;;;;;;;9.40;3.00;;;;;;;22.41;35.80;101157.29;105518;1256;71548;-71
2023/05/20 09:54:56;;;;;;;10.00;3.60;;;;;;;22.10;36.13;101154.36;105553;1261;59474;-74
2023/05/20 09:57:45;;;;;;;9.10;3.20;;;;;;;21.91;36.38;101147.77;105839;1257;60811;-78
2023/05/20 10:00:34;;;;;;;9.10;2.70;;;;;;;21.80;37.09;101149.91;105785;1256;72933;-76
2023/05/20 10:03:26;;;;;;;8.50;2.40;;;;;;;21.74;36.74;101149.54;106065;1258;67872;-74
2023/05/20 10:06:47;;;;;;;8.20;2.50;;;;;;;21.76;36.54;101148.45;106201;1256;71519;-75
2023/05/20 10:10:44;;;;;;;6.50;2.20;;;;;;;21.95;36.62;101151.84;105931;1254;59614;-71
2023/05/20 10:14:37;;;;;;;6.80;2.30;;;;;;;22.49;36.21;101151.59;106110;1259;59738;-72
2023/05/20 10:18:23;;;;;;;7.50;2.30;;;;;;;22.73;35.63;101154.27;105816;1254;71552;-74
2023/05/20 10:21:17;;;;;;;8.10;2.40;;;;;;;22.41;36.29;101154.98;105947;1258;67979;-74
2023/05/20 10:24:10;;;;;;;8.80;2.90;;;;;;;22.09;37.03;101156.70;105753;1258;73713;-71
2023/05/20 10:27:02;;;;;;;7.70;2.60;;;;;;;21.75;37.28;101157.23;105903;1261;59603;-75
2023/05/20 10:29:55;;;;;;;9.40;2.60;;;;;;;21.31;37.98;101159.57;105952;1257;59529;-73
2023/05/20 10:33:25;;;;;;;8.10;3.10;;;;;;;20.79;38.61;101150.23;105668;1254;73222;-73
2023/05/20 10:36:29;;;;;;;8.30;2.30;;;;;;;20.14;39.61;101153.26;105966;1259;67588;-72
2023/05/20 10:39:17;;;;;;;8.80;2.60;;;;;;;19.71;40.59;101155.38;106009;1260;73421;-72
2023/05/20 10:42:10;;;;;;;7.80;2.70;;;;;;;19.31;41.86;101157.46;105990;1258;59499;-76
2023/05/20 10:44:58;;;;;;;10.70;3.10;;;;;;;19.00;42.79;101159.67;105717;1254;60852;-75
2023/05/20 10:47:59;;;;;;;9.50;2.70;;;;;;;18.78;43.65;101159.98;105782;1255;73782;-70
2023/05/20 10:50:49;;;;;;;14.00;2.80;;;;;;;18.54;44.85;101160.46;105775;1254;68238;-73
2023/05/20 10:53:39;;;;;;;9.70;3.10;;;;;;;18.33;45.41;101156.33;105769;1262;72821;-74
2023/05/20 10:56:27;;;;;;;8.90;3.00;;;;;;;18.09;45.95;101149.66;105800;1255;59832;-73
2023/05/20 10:59:15;;;;;;;9.30;3.20;;;;;;;17.84;46.83;101143.52;105701;1255;60931;-74
2023/05/20 11:02:04;;;;;;;8.40;3.20;;;;;;;17.68;47.53;101142.47;105690;1254;71478;-72
2023/05/20 11:04:55;;;;;;;10.30;3.40;;;;;;;17.46;47.66;101140.30;105615;1256;66637;-72
2023/05/20 11:07:44;;;;;;;10.60;3.30;;;;;;;17.21;47.79;101138.42;106044;1256;70643;-75
2023/05/20 11:10:36;;;;;;;8.40;3.40;;;;;;;17.00;48.92;101133.48;106046;1256;59592;-75
2023/05/20 11:13:25;;;;;;;7.40;3.10;;;;;;;16.82;49.82;101130.29;105794;1254;60083;-74
2023/05/20 11:16:14;;;;;;;9.70;3.80;;;;;;;16.64;50.08;101131.69;106585;1259;73101;-75
2023/05/20 11:19:03;;;;;;;9.20;3.30;;;;;;;16.50;50.13;101128.55;105579;1259;68710;-76
2023/05/20 11:21:52;;;;;;;11.70;3.60;;;;;;;16.45;52.22;101126.89;105746;1256;73491;-74
2023/05/20 11:24:40;;;;;;;8.50;3.20;;;;;;;16.50;52.40;101125.21;105723;1262;59537;-76
2023/05/20 11:27:28;;;;;;;8.10;2.70;;;;;;;16.63;52.77;101123.13;105704;1259;60507;-72
2023/05/20 11:30:17;;;;;;;10.80;3.20;;;;;;;16.79;52.03;101120.71;105682;1256;72890;-74
2023/05/20 11:33:05;;;;;;;11.80;3.40;;;;;;;17.00;51.12;101125.34;105782;1256;66278;-72
2023/05/20 11:35:54;;;;;;;9.30;3.60;;;;;;;17.23;49.41;101119.20;105804;1254;73190;-74
2023/05/20 11:38:46;;;;;;;8.80;3.40;;;;;;;17.50;48.36;101112.80;106280;1256;59586;-76
2023/05/20 11:41:34;;;;;;;9.80;3.30;;;;;;;17.91;47.77;101111.11;105840;1254;61349;-73
2023/05/20 11:44:24;;;;;;;8.50;3.50;;;;;;;18.24;46.06;101109.73;105840;1259;72778;-74
2023/05/20 11:47:12;;;;;;;9.20;3.10;;;;;;;18.44;44.15;101105.72;105839;1257;67971;-77
2023/05/20 11:50:00;;;;;;;8.50;3.50;;;;;;;18.67;44.01;101106.20;105700;1263;71521;-77
2023/05/20 11:52:58;;;;;;;9.30;3.10;;;;;;;18.95;42.99;101105.88;105789;1265;59746;-77
2023/05/20 11:55:48;;;;;;;10.30;3.10;;;;;;;19.22;42.21;101093.75;105769;1261;59586;-75
2023/05/20 11:58:36;;;;;;;9.20;3.60;;;;;;;19.68;41.77;101093.02;105951;1258;72861;-73
2023/05/20 12:01:26;;;;;;;10.10;3.00;;;;;;;20.04;40.37;101089.79;105806;1256;68422;-75
2023/05/20 12:04:16;;;;;;;7.30;2.90;;;;;;;20.16;38.93;101088.23;105908;1256;72691;-74
2023/05/20 12:07:08;;;;;;;8.90;3.10;;;;;;;20.18;38.79;101089.05;105667;1254;59727;-73
2023/05/20 12:09:56;;;;;;;10.30;2.80;;;;;;;20.23;39.42;101088.71;105668;1255;60048;-76
2023/05/20 12:12:45;;;;;;;13.30;5.80;;;;;;;20.40;40.10;101089.00;105797;1257;71734;-74
2023/05/20 12:15:35;;;;;;;10.80;4.00;;;;;;;20.57;39.14;101094.45;105763;1254;67900;-75
2023/05/20 12:18:23;;;;;;;9.30;3.80;;;;;;;20.69;38.34;101095.19;105775;1256;73573;-76
2023/05/20 12:21:12;;;;;;;10.10;3.40;;;;;;;20.83;38.41;101097.33;105563;1263;59719;-73
2023/05/20 12:24:00;;;;;;;10.20;3.40;;;;;;;20.84;38.13;101096.14;105806;1255;59670;-76
2023/05/20 12:26:53;;;;;;;8.80;3.00;;;;;;;20.63;38.62;101088.92;105702;1255;72660;-76
2023/05/20 12:29:44;;;;;;;9.30;3.40;;;;;;;20.32;39.16;101086.18;105955;1257;66642;-75
2023/05/20 12:32:32;;;;;;;8.00;2.80;;;;;;;20.05;38.86;101085.67;106891;1254;71118;-76
2023/05/20 12:35:40;;;;;;;8.10;3.10;;;;;;;19.76;38.71;101081.90;107455;1254;59498;-74
2023/05/20 12:38:29;;;;;;;8.30;2.80;;;;;;;19.51;39.01;101078.11;106891;1256;59715;-73
2023/05/20 12:41:17;;;;;;;10.40;3.30;;;;;;;19.28;39.46;101078.55;106649;1255;74064;-77
2023/05/20 12:44:05;;;;;;;8.50;3.20;;;;;;;19.06;39.97;101076.98;105995;1255;66317;-74
2023/05/20 12:46:54;;;;;;;8.00;3.10;;;;;;;18.94;40.34;101078.52;106154;1254;72704;-74
2023/05/20 12:49:44;;;;;;;10.00;2.90;;;;;;;18.79;41.48;101077.01;105722;1256;59565;-76
2023/05/20 12:52:32;;;;;;;10.90;3.10;;;;;;;18.54;41.63;101075.63;105738;1256;60499;-74
2023/05/20 12:55:20;;;;;;;8.70;3.00;;;;;;;18.31;42.39;101071.15;106035;1260;72783;-76
2023/05/20 12:58:08;;;;;;;8.50;2.70;;;;;;;18.11;42.89;101064.59;105721;1254;66142;-74
2023/05/20 13:00:56;;;;;;;8.80;2.80;;;;;;;17.91;43.03;101060.88;105712;1255;72700;-75
2023/05/20 13:03:46;;;;;;;8.90;2.70;;;;;;;17.73;43.97;101063.39;105856;1254;59705;-77
2023/05/20 13:06:35;;;;;;;6.40;2.40;;;;;;;17.57;44.42;101058.58;105850;1258;59641;-73
2023/05/20 13:09:24;;;;;;;7.10;2.70;;;;;;;17.42;45.41;101055.07;105714;1254;72703;-74